Time;durP1;ratioP1;P1;durP2;ratioP2;P2;SDS_P1;SDS_P2;PMS_P1;PMS_P2;Temp;Humidity;BMP_temperature;BMP_pressure;BME280_temperature;BME280_humidity;BME280_pressure;Samples;Min_cycle;Max_cycle;Signal;HPM_P1;HPM_P2
2024/04/22 00:00:18;;;;;;;11.15;5.80;;;;;;;-144.05;78.13;57059.09;5382125;26;20000;-80
2024/04/22 00:02:44;;;;;;;10.20;6.05;;;-2.10;99.90;;;-144.05;78.13;57063.34;5382462;26;20364;-81
2024/04/22 00:05:12;;;;;;;9.57;5.78;;;-2.10;99.90;;;-144.05;78.28;57056.97;5380135;26;20000;-81
2024/04/22 00:07:39;;;;;;;8.88;6.15;;;-2.50;99.90;;;-144.05;78.05;57063.34;5369670;26;20469;-80
2024/04/22 00:10:05;;;;;;;10.50;5.40;;;-2.40;99.90;;;-144.05;77.98;57052.75;5380017;26;19996;-79
2024/04/22 00:12:33;;;;;;;13.52;6.40;;;-2.10;99.90;;;-144.05;77.75;57069.72;5382780;26;20019;-80
2024/04/22 00:14:59;;;;;;;11.55;6.28;;;-2.30;99.90;;;-144.05;78.28;57065.47;5382567;26;20036;-81
2024/04/22 00:17:25;;;;;;;8.93;5.60;;;1.90;99.90;;;-144.05;78.28;57099.47;5382706;26;20015;-81
2024/04/22 00:19:53;;;;;;;8.70;5.50;;;-2.50;99.90;;;-144.05;77.88;57035.75;5380368;26;19996;-79
2024/04/22 00:22:19;;;;;;;8.23;5.80;;;-2.50;99.90;;;-144.05;77.98;57061.22;5370555;26;20004;-81
2024/04/22 00:24:47;;;;;;;8.75;6.32;;;-2.40;99.90;;;-144.05;77.95;57056.97;5382293;26;20000;-82
2024/04/22 00:27:16;;;;;;;9.75;5.78;;;-2.40;99.90;;;-144.05;77.67;57054.88;5382471;26;20449;-81
2024/04/22 00:29:41;;;;;;;11.73;6.75;;;1.90;99.90;;;-144.05;77.48;57046.38;5409839;26;20012;-82
2024/04/22 00:32:07;;;;;;;10.05;6.18;;;-2.60;99.90;;;-144.05;77.36;57056.97;5370513;26;20419;-83
2024/04/22 00:34:33;;;;;;;12.20;5.57;;;-2.40;99.90;;;-144.05;77.44;57046.38;5386579;26;20001;-81
2024/04/22 00:36:59;;;;;;;10.00;6.10;;;;;;;-144.05;77.42;57063.34;5363911;26;20009;-81
2024/04/22 00:39:25;;;;;;;8.52;5.55;;;;;;;-144.05;77.74;57063.34;5392460;26;20015;-81
2024/04/22 00:41:51;;;;;;;9.43;5.80;;;-2.40;99.90;;;-144.05;77.76;57040.00;5383362;26;20008;-83
2024/04/22 00:44:17;;;;;;;8.73;5.75;;;-2.40;99.90;;;-144.05;77.64;57044.25;5382582;26;20342;-81
2024/04/22 00:46:44;;;;;;;10.20;5.63;;;-2.30;99.90;;;-144.05;77.75;57069.72;5397016;26;20467;-80
2024/04/22 00:49:11;;;;;;;10.70;6.10;;;-2.70;99.90;;;-144.05;77.60;57054.88;5406902;26;20087;-81
2024/04/22 00:51:38;;;;;;;11.50;6.07;;;-2.20;99.90;;;-144.05;77.88;57056.97;5381017;26;20471;-82
2024/04/22 00:54:09;;;;;;;9.63;5.72;;;0.90;99.90;;;-144.05;77.73;57056.97;5383231;26;20022;-81
2024/04/22 00:56:39;;;;;;;7.60;5.28;;;0.90;99.90;;;-144.05;77.66;57046.38;5381513;26;20080;-81
2024/04/22 00:59:06;;;;;;;7.75;5.13;;;0.90;99.90;;;-144.05;78.19;57044.25;5381009;26;19996;-81
2024/04/22 01:01:33;;;;;;;6.68;4.88;;;-2.20;99.90;;;-144.05;78.28;57056.97;5382940;26;20451;-81
2024/04/22 01:03:59;;;;;;;7.57;5.18;;;;;;;-144.05;78.35;57040.00;5381530;26;20103;-81
2024/04/22 01:06:26;;;;;;;12.65;6.00;;;;;;;-144.05;78.46;57090.97;5372173;26;20017;-82
2024/04/22 01:08:52;;;;;;;8.57;5.60;;;;;;;-144.05;78.71;57048.50;5363871;26;20051;-82
2024/04/22 01:11:18;;;;;;;9.10;5.55;;;;;;;-144.05;79.03;57029.38;5408868;26;20011;-82
2024/04/22 01:13:47;;;;;;;12.35;6.82;;;;;;;-144.05;79.01;57069.72;5381686;26;20435;-82
2024/04/22 01:16:14;;;;;;;10.55;7.32;;;;;;;-144.05;79.65;57063.34;5381408;26;19996;-80
2024/04/22 01:18:42;;;;;;;11.85;6.47;;;-2.30;99.90;;;-144.05;79.86;57059.09;5381275;26;20000;-82
2024/04/22 01:21:08;;;;;;;10.50;6.70;;;;;;;-144.05;79.22;57042.13;5381289;26;20015;-83
2024/04/22 01:23:36;;;;;;;8.55;6.43;;;-2.10;99.90;;;-144.05;79.19;57040.00;5409494;26;20094;-82
2024/04/22 01:26:05;;;;;;;9.50;5.72;;;1.30;99.90;;;-144.05;78.75;57056.97;5382479;26;20032;-83
2024/04/22 01:28:31;;;;;;;9.82;6.55;;;;;;;-144.05;78.95;57025.13;5375878;26;19997;-79
2024/04/22 01:30:58;;;;;;;11.48;6.38;;;;;;;-144.05;79.05;57067.59;5381530;26;20035;-81
2024/04/22 01:33:23;;;;;;;10.75;5.82;;;1.90;99.90;;;-144.05;79.07;57048.50;5374892;26;20019;-81
2024/04/22 01:35:50;;;;;;;12.25;6.00;;;;;;;-144.05;79.30;57029.38;5378071;26;20005;-81
2024/04/22 01:38:16;;;;;;;9.48;6.47;;;;;;;-144.05;79.20;57040.00;5381271;26;20079;-79
2024/04/22 01:40:42;;;;;;;10.68;6.47;;;;;;;-144.05;79.55;57048.50;5380196;26;20007;-80
2024/04/22 01:43:08;;;;;;;8.70;5.88;;;;;;;-144.05;79.50;57052.75;5380244;26;20353;-80
2024/04/22 01:45:34;;;;;;;9.57;6.07;;;-2.00;99.90;;;-144.05;79.53;57054.88;5377850;26;20523;-80
2024/04/22 01:48:00;;;;;;;8.15;5.75;;;-2.40;99.90;;;-144.05;79.66;57052.75;5381021;26;20004;-81
2024/04/22 01:50:27;;;;;;;11.35;6.10;;;2.10;99.90;;;-144.05;79.88;57018.75;5381184;26;20011;-80
2024/04/22 01:52:53;;;;;;;9.57;5.82;;;;;;;-144.05;79.86;57048.50;5380735;26;20016;-80
2024/04/22 01:55:19;;;;;;;9.43;5.68;;;-1.90;99.90;;;-144.05;79.69;57071.84;5380668;26;20000;-80
2024/04/22 01:57:45;;;;;;;10.60;5.95;;;;;;;-144.05;79.80;57059.09;5381436;26;20008;-81
2024/04/22 02:00:12;;;;;;;8.18;5.65;;;-1.80;99.90;;;-144.05;79.70;57080.34;5380903;26;20000;-81
2024/04/22 02:02:37;;;;;;;10.02;5.53;;;-1.30;99.90;;;-144.05;79.60;57037.88;5381376;26;20329;-80
2024/04/22 02:05:06;;;;;;;9.25;6.03;;;-1.80;99.90;;;-144.05;79.69;57040.00;5370305;26;20012;-80
2024/04/22 02:07:35;;;;;;;9.40;6.25;;;;;;;-144.05;79.69;57035.75;5380833;26;20000;-82
2024/04/22 02:10:01;;;;;;;9.02;5.45;;;-1.60;99.90;;;-144.05;79.66;57040.00;5378610;26;20457;-81
2024/04/22 02:12:28;;;;;;;8.45;6.43;;;;;;;-144.05;79.57;57056.97;5378841;26;20000;-81
2024/04/22 02:14:53;;;;;;;11.25;5.93;;;-2.00;99.90;;;-144.05;79.43;57067.59;5380501;26;20007;-81
2024/04/22 02:17:19;;;;;;;10.95;6.57;;;-1.90;99.90;;;-144.05;79.42;57008.13;5380622;26;20000;-83
2024/04/22 02:19:45;;;;;;;9.68;6.25;;;;;;;-144.05;79.49;57059.09;5410225;26;20346;-82
2024/04/22 02:22:12;;;;;;;9.15;6.03;;;;;;;-144.05;79.76;57044.25;5384170;26;20001;-81
2024/04/22 02:24:38;;;;;;;9.93;6.10;;;-1.70;99.90;;;-144.05;79.83;57046.38;5384014;26;20000;-81
2024/04/22 02:27:04;;;;;;;10.60;6.78;;;-1.70;99.90;;;-144.05;79.82;57027.25;5382263;26;21819;-82
2024/04/22 02:29:30;;;;;;;9.70;6.07;;;;;;;-144.05;79.90;57065.47;5384501;26;20401;-80
2024/04/22 02:31:56;;;;;;;10.98;6.35;;;-1.50;99.90;;;-144.05;80.10;56984.78;5369563;26;20041;-80
2024/04/22 02:34:23;;;;;;;9.98;6.25;;;;;;;-144.05;79.74;57035.75;5405956;26;20004;-81
2024/04/22 02:36:49;;;;;;;13.25;7.38;;;-1.50;99.90;;;-144.05;79.79;57040.00;5379399;26;20068;-82
2024/04/22 02:39:14;;;;;;;9.05;5.78;;;-1.50;99.90;;;-144.05;79.45;57027.25;5384531;26;20016;-82
2024/04/22 02:41:40;;;;;;;11.15;6.78;;;-1.90;99.90;;;-144.05;79.49;57048.50;5378824;26;20000;-81
2024/04/22 02:44:06;;;;;;;9.85;6.55;;;;;;;-144.05;79.49;57054.88;5401836;26;20000;-80
2024/04/22 02:46:33;;;;;;;11.65;6.45;;;;;;;-144.05;79.49;57012.38;5384136;26;20000;-81
2024/04/22 02:48:59;;;;;;;11.65;7.00;;;;;;;-144.05;79.57;57029.38;5375921;26;20004;-80
2024/04/22 02:51:25;;;;;;;11.30;6.75;;;;;;;-144.05;79.44;57044.25;5372856;26;20000;-81
2024/04/22 02:53:51;;;;;;;9.77;6.28;;;-1.40;99.90;;;-144.05;79.62;57023.00;5372506;26;20346;-80
2024/04/22 02:56:17;;;;;;;10.90;5.80;;;-1.40;99.90;;;-144.05;79.60;57018.75;5380959;26;20012;-82
2024/04/22 02:58:46;;;;;;;9.98;6.15;;;-1.70;99.90;;;-144.05;79.59;57033.63;5383061;26;20008;-80
2024/04/22 03:01:12;;;;;;;9.23;6.15;;;;;;;-144.05;79.55;57040.00;5380055;26;20331;-81
2024/04/22 03:03:41;;;;;;;14.57;7.40;;;;;;;-144.05;79.77;57001.75;5372303;26;20012;-82
2024/04/22 03:06:07;;;;;;;11.60;6.65;;;;;;;-144.05;79.62;57020.88;5382900;26;20004;-82
2024/04/22 03:08:33;;;;;;;10.75;6.18;;;-1.50;99.90;;;-144.05;79.75;57065.47;5382769;26;20556;-81
2024/04/22 03:11:00;;;;;;;9.25;6.18;;;;;;;-144.05;79.57;57023.00;5383151;26;20008;-81
2024/04/22 03:13:26;;;;;;;9.88;6.85;;;2.50;99.90;;;-144.05;79.65;57044.25;5374849;26;20014;-80
2024/04/22 03:15:52;;;;;;;7.75;5.60;;;-1.80;99.90;;;-144.05;79.82;57056.97;5389021;26;20012;-80
2024/04/22 03:18:20;;;;;;;9.40;6.43;;;-1.40;99.90;;;-144.05;79.95;57056.97;5383305;26;20000;-81
2024/04/22 03:20:46;;;;;;;10.30;6.43;;;-1.40;99.90;;;-144.05;80.00;57059.09;5383101;26;20078;-81
2024/04/22 03:23:12;;;;;;;10.82;6.13;;;;;;;-144.05;79.98;57040.00;5383316;26;20036;-81
2024/04/22 03:25:38;;;;;;;11.20;6.55;;;;;;;-144.05;79.77;57050.63;5375576;26;20000;-83
2024/04/22 03:28:05;;;;;;;8.25;5.82;;;-1.30;99.90;;;-144.05;80.02;57014.50;5380564;26;20003;-81
2024/04/22 03:30:31;;;;;;;10.50;7.25;;;-1.70;99.90;;;-144.05;80.10;57033.63;5375837;26;20079;-83
2024/04/22 03:32:56;;;;;;;9.98;5.88;;;-1.80;99.90;;;-144.05;80.04;57031.50;5365573;26;20008;-82
2024/04/22 03:35:22;;;;;;;10.90;6.75;;;-1.90;99.90;;;-144.05;80.15;57046.38;5379360;26;19997;-81
2024/04/22 03:37:48;;;;;;;10.18;6.28;;;;;;;-144.05;80.13;57044.25;5384434;26;20000;-80
2024/04/22 03:40:15;;;;;;;9.57;6.55;;;;;;;-144.05;80.27;57033.63;5382730;26;20007;-79
2024/04/22 03:42:40;;;;;;;11.20;7.10;;;-1.40;99.90;;;-144.05;80.52;57054.88;5383182;26;20028;-80
2024/04/22 03:45:07;;;;;;;11.63;7.10;;;;;;;-144.05;80.10;57031.50;5370776;26;20010;-80
2024/04/22 03:50:17;;;;;;;9.32;6.20;;;-1.90;99.90;;;-144.05;80.27;57044.25;5380712;26;20073;-79
2024/04/22 03:52:43;;;;;;;11.32;6.28;;;-2.10;99.90;;;-144.05;80.46;57040.00;5378619;26;20015;-81
2024/04/22 03:55:09;;;;;;;12.55;7.65;;;;;;;-144.05;80.55;57035.75;5381257;26;20016;-81
2024/04/22 03:57:35;;;;;;;10.55;7.00;;;2.20;99.90;;;-144.05;80.59;57031.50;5383058;26;19996;-81
2024/04/22 04:00:01;;;;;;;10.25;6.63;;;;;;;-144.05;80.59;57048.50;5371223;26;20445;-80
2024/04/22 04:02:27;;;;;;;11.95;6.95;;;;;;;-144.05;80.91;57035.75;5376077;26;20342;-81
2024/04/22 04:04:54;;;;;;;11.32;7.05;;;;;;;-144.05;80.79;57065.47;5377888;26;20136;-81
2024/04/22 04:07:19;;;;;;;11.38;7.10;;;-2.10;99.90;;;-144.05;80.84;57027.25;5368686;26;20034;-81
2024/04/22 04:09:48;;;;;;;9.45;6.50;;;-2.10;99.90;;;-144.05;80.99;57048.50;5382694;26;19996;-81
2024/04/22 04:12:14;;;;;;;11.27;6.75;;;;;;;-144.05;81.00;57035.75;5383004;26;20000;-80
2024/04/22 04:14:40;;;;;;;10.07;6.78;;;;;;;-144.05;81.03;57020.88;5374807;26;20009;-80
2024/04/22 04:17:06;;;;;;;14.63;7.45;;;-2.50;99.90;;;-144.05;81.32;57048.50;5381168;26;20008;-80
2024/04/22 04:19:32;;;;;;;13.05;7.53;;;;;;;-144.05;81.25;57044.25;5382042;26;20012;-80
2024/04/22 04:21:58;;;;;;;10.15;6.78;;;;;;;-144.05;81.40;57048.50;5380642;26;20011;-81
2024/04/22 04:24:24;;;;;;;10.85;6.78;;;-2.20;99.90;;;-144.05;81.44;57050.63;5376997;26;20001;-80
2024/04/22 04:26:51;;;;;;;8.73;6.28;;;-2.00;99.90;;;-144.05;81.37;57050.63;5376943;26;20310;-81
2024/04/22 04:29:18;;;;;;;10.82;6.63;;;;;;;-144.05;81.47;57063.34;5382319;26;20015;-82
2024/04/22 04:31:43;;;;;;;9.85;6.82;;;-1.80;99.90;;;-144.05;81.61;57046.38;5374340;26;20009;-82
2024/04/22 04:34:09;;;;;;;9.98;6.93;;;-1.60;99.90;;;-144.05;81.71;57027.25;5381960;26;20011;-81
2024/04/22 04:36:36;;;;;;;11.80;7.03;;;;;;;-144.05;81.49;57031.50;5378075;26;20008;-82
2024/04/22 04:39:04;;;;;;;12.13;7.72;;;-1.70;99.90;;;-144.05;81.70;57061.22;5407222;26;20015;-80
2024/04/22 04:41:31;;;;;;;13.38;7.00;;;;;;;-144.05;81.86;57061.22;5375996;26;20008;-82
2024/04/22 04:43:56;;;;;;;12.82;6.93;;;-1.60;99.90;;;-144.05;82.04;57035.75;5386739;26;20050;-82
2024/04/22 04:46:23;;;;;;;10.02;7.15;;;;;;;-144.05;82.00;57033.63;5393492;26;20012;-82
2024/04/22 04:48:49;;;;;;;11.55;7.32;;;;;;;-144.05;82.16;57052.75;5379494;26;20001;-81
2024/04/22 04:51:15;;;;;;;12.18;7.43;;;-1.70;99.90;;;-144.05;82.29;57025.13;5373560;26;20004;-82
2024/04/22 04:53:40;;;;;;;12.50;7.38;;;-1.30;99.90;;;-144.05;82.26;57006.00;5382583;26;20015;-80
2024/04/22 04:56:06;;;;;;;11.13;7.20;;;-1.50;99.90;;;-144.05;82.37;57020.88;5379857;26;20045;-80
2024/04/22 04:58:32;;;;;;;15.25;7.78;;;-1.40;99.90;;;-144.05;82.39;57027.25;5363828;26;19997;-80
2024/04/22 05:00:58;;;;;;;13.02;7.80;;;-1.00;99.90;;;-144.05;82.37;57050.63;5351494;26;20056;-82
2024/04/22 05:03:24;;;;;;;12.38;7.57;;;;;;;-144.05;82.32;57023.00;5360677;26;20016;-80
2024/04/22 05:06:02;;;;;;;10.10;7.03;;;-1.30;99.90;;;-144.05;82.39;57001.75;5387143;26;20011;-80
2024/04/22 05:08:28;;;;;;;12.35;7.72;;;2.10;99.90;;;-144.05;82.42;57063.34;5410884;26;20005;-82
2024/04/22 05:10:57;;;;;;;14.05;8.93;;;-0.80;99.90;;;-144.05;82.30;57033.63;5352583;26;20319;-82
2024/04/22 05:13:24;;;;;;;12.40;7.45;;;3.00;99.90;;;-144.05;82.39;57050.63;5377015;26;20015;-82
2024/04/22 05:15:49;;;;;;;10.95;7.70;;;3.30;99.90;;;-144.05;82.21;57050.63;5414748;26;20004;-81
2024/04/22 05:18:15;;;;;;;12.70;7.65;;;-0.80;99.90;;;-144.05;82.13;57029.38;5415357;26;20355;-81
2024/04/22 05:20:41;;;;;;;13.38;8.68;;;-0.80;99.90;;;-144.05;82.14;57023.00;5395879;26;20000;-80
2024/04/22 05:23:07;;;;;;;13.55;8.23;;;-0.80;99.90;;;-144.05;82.10;57016.63;5379085;26;20007;-82
2024/04/22 05:25:33;;;;;;;12.70;7.80;;;;;;;-144.05;82.05;57014.50;5372838;26;20461;-80
2024/04/22 05:27:59;;;;;;;11.98;7.85;;;;;;;-144.05;82.04;57014.50;5378616;26;20028;-81
2024/04/22 05:30:25;;;;;;;13.38;8.38;;;;;;;-144.05;82.06;57014.50;5380775;26;19996;-81
2024/04/22 05:32:52;;;;;;;14.82;8.32;;;;;;;-144.05;81.91;57016.63;5382544;26;19996;-81
2024/04/22 05:38:02;;;;;;;12.60;7.50;;;0.20;99.90;;;-144.05;81.46;57012.38;5378642;26;20008;-82
2024/04/22 05:40:28;;;;;;;12.70;7.90;;;4.10;99.90;;;-144.05;81.17;56989.00;5375129;26;20457;-81
2024/04/22 05:42:54;;;;;;;11.55;7.35;;;0.00;99.90;;;-144.05;81.17;57006.00;5385181;26;20047;-82
2024/04/22 05:45:20;;;;;;;11.73;8.05;;;4.60;99.90;;;-144.05;81.14;56980.53;5384522;26;20012;-83
2024/04/22 05:47:45;;;;;;;12.73;8.50;;;0.50;99.90;;;-144.05;81.00;56997.50;5384602;26;20436;-82
2024/04/22 05:50:11;;;;;;;10.70;7.40;;;0.60;99.90;;;-144.05;80.77;56989.00;5383823;26;20000;-82
2024/04/22 05:52:37;;;;;;;15.07;8.20;;;;;;;-144.05;80.33;56997.50;5384139;26;20013;-83
2024/04/22 05:55:04;;;;;;;13.32;7.63;;;1.00;99.90;;;-144.05;79.78;56963.53;5391818;26;20015;-81
2024/04/22 05:57:30;;;;;;;12.27;8.32;;;1.90;99.90;;;-144.05;78.55;56984.78;5391737;26;20040;-81
2024/04/22 05:59:56;;;;;;;14.07;8.82;;;;;;;-144.05;77.23;56976.28;5393567;26;20009;-82
2024/04/22 06:02:22;;;;;;;13.43;8.10;;;2.80;99.90;;;-144.05;76.05;56972.03;5373357;26;20012;-82
2024/04/22 06:04:48;;;;;;;10.57;7.25;;;4.90;99.90;;;-144.05;74.94;56942.28;5386926;26;20084;-81
2024/04/22 06:07:13;;;;;;;10.60;7.20;;;4.20;99.90;;;-144.05;69.72;56942.28;5386421;26;20350;-81
2024/04/22 06:09:40;;;;;;;11.23;6.95;;;;;;;-144.05;67.78;56948.66;5386952;26;20018;-81
2024/04/22 06:12:06;;;;;;;11.90;7.00;;;7.00;99.90;;;-144.05;63.75;56961.41;5387124;26;20452;-80
2024/04/22 06:14:32;;;;;;;9.32;6.05;;;6.90;99.90;;;-144.05;61.64;56963.53;5389093;26;20475;-81
2024/04/22 06:16:57;;;;;;;10.23;6.57;;;6.90;99.90;;;-144.05;60.56;56952.91;5387762;26;20000;-82
2024/04/22 06:19:23;;;;;;;11.15;6.60;;;4.80;99.90;;;-144.05;59.04;56944.41;5389096;26;19997;-81
2024/04/22 06:21:49;;;;;;;8.32;5.55;;;7.40;99.90;;;-144.05;58.54;56978.41;5386695;26;20680;-81
2024/04/22 06:24:15;;;;;;;12.85;7.00;;;7.10;99.90;;;-144.05;58.00;56963.53;5386055;26;20001;-82
2024/04/22 06:26:41;;;;;;;12.10;6.78;;;7.30;99.90;;;-144.05;57.29;56959.28;5413424;26;20000;-82
2024/04/22 06:29:06;;;;;;;11.65;6.15;;;7.20;99.90;;;-144.05;56.70;56972.03;5385388;26;20075;-79
2024/04/22 06:31:32;;;;;;;10.25;5.95;;;7.30;99.90;;;-144.05;55.50;56980.53;5385238;26;20046;-79
2024/04/22 06:33:58;;;;;;;10.38;5.88;;;8.00;99.90;;;-144.05;54.53;56959.28;5381563;26;20306;-82
2024/04/22 06:36:24;;;;;;;12.23;5.57;;;7.10;99.90;;;-144.05;54.57;56972.03;5371902;26;20007;-83
2024/04/22 06:38:50;;;;;;;6.97;4.47;;;;;;;-144.05;54.05;56942.28;5384241;26;20010;-83
2024/04/22 06:41:16;;;;;;;8.88;4.75;;;8.20;99.90;;;-144.05;54.07;56967.78;5421324;26;20014;-83
2024/04/22 06:43:42;;;;;;;7.88;4.93;;;7.70;99.90;;;-144.05;53.57;56959.28;5396086;26;20723;-84
2024/04/22 06:46:08;;;;;;;9.52;4.45;;;7.00;99.90;;;-144.05;54.49;56963.53;5385470;26;20434;-81
2024/04/22 06:48:33;;;;;;;9.90;4.85;;;7.20;99.90;;;-144.05;53.04;56948.66;5385169;26;20023;-82
2024/04/22 06:51:00;;;;;;;8.00;5.10;;;6.80;99.90;;;-144.05;54.27;56976.28;5384639;26;20000;-83
2024/04/22 06:53:27;;;;;;;6.70;5.00;;;8.70;99.90;;;-144.05;53.85;56940.16;5385202;26;20004;-82
2024/04/22 06:55:53;;;;;;;7.45;5.18;;;8.60;99.90;;;-144.05;53.41;56965.66;5385749;26;20369;-84
2024/04/22 06:58:19;;;;;;;6.80;4.88;;;;;;;-144.05;52.91;56963.53;5385728;26;19996;-81
2024/04/22 07:00:47;;;;;;;8.68;4.82;;;7.70;99.90;;;-144.05;53.08;56948.66;5385322;26;20023;-83
2024/04/22 07:03:13;;;;;;;7.75;5.25;;;7.80;99.90;;;-144.05;53.93;56952.91;5385958;26;20442;-82
2024/04/22 07:05:39;;;;;;;6.82;4.55;;;;;;;-144.05;53.55;56969.91;5375731;26;20000;-82
2024/04/22 07:08:05;;;;;;;7.72;4.93;;;7.50;99.90;;;-144.05;52.79;56974.16;5386071;26;20013;-82
2024/04/22 07:10:31;;;;;;;6.50;4.47;;;;;;;-144.05;51.65;56963.53;5385539;26;20001;-82
2024/04/22 07:12:58;;;;;;;7.00;4.20;;;;;;;-144.05;49.37;56942.28;5390534;26;20011;-82
2024/04/22 07:15:24;;;;;;;7.90;4.40;;;;;;;-144.05;48.78;56952.91;5385705;26;20004;-82
2024/04/22 07:17:50;;;;;;;6.70;4.25;;;7.50;99.90;;;-144.05;49.02;56942.28;5378180;26;20020;-83
2024/04/22 07:20:16;;;;;;;7.20;4.80;;;9.20;99.90;;;-144.05;49.66;56916.81;5377066;26;20015;-83
2024/04/22 07:22:43;;;;;;;6.35;4.60;;;7.80;99.90;;;-144.05;49.19;56976.28;5407202;26;20009;-82
2024/04/22 07:25:11;;;;;;;7.00;3.97;;;7.30;99.90;;;-144.05;48.67;56969.91;5383190;26;20004;-81
2024/04/22 07:27:38;;;;;;;6.78;3.83;;;;;;;-144.05;49.34;56952.91;5386810;26;20019;-82
2024/04/22 07:30:06;;;;;;;6.28;4.53;;;7.30;99.90;;;-144.05;50.65;56935.91;5385419;26;20011;-81
2024/04/22 07:32:33;;;;;;;6.40;4.50;;;7.80;99.90;;;-144.05;50.71;56950.78;5391927;26;20029;-84
2024/04/22 07:34:59;;;;;;;8.43;4.10;;;8.50;99.90;;;-144.05;51.77;56978.41;5386690;26;20004;-83
2024/04/22 07:37:40;;;;;;;6.70;3.78;;;7.70;99.90;;;-144.05;51.03;56967.78;5387040;26;20114;-82
2024/04/22 07:40:17;;;;;;;6.20;4.00;;;7.50;99.90;;;-144.05;49.91;56944.41;5385363;26;19996;-84
2024/04/22 07:42:45;;;;;;;6.63;4.40;;;10.50;99.90;;;-144.05;47.08;56950.78;5378813;26;20011;-82
2024/04/22 07:45:13;;;;;;;5.88;3.90;;;10.70;99.90;;;-144.05;47.02;56925.28;5392280;26;20011;-81
2024/04/22 07:47:42;;;;;;;5.53;3.65;;;7.90;99.90;;;-144.05;46.52;56946.53;5385590;26;20008;-81
2024/04/22 07:50:10;;;;;;;6.88;3.20;;;10.70;99.90;;;-144.05;45.90;56946.53;5412345;26;20045;-83
2024/04/22 07:52:40;;;;;;;4.22;2.97;;;13.80;99.90;;;-144.05;44.96;56946.53;5384103;26;20453;-81
2024/04/22 07:55:08;;;;;;;6.43;3.80;;;14.00;99.90;;;-144.05;43.63;56931.66;5383797;26;19996;-81
2024/04/22 07:57:40;;;;;;;4.90;3.60;;;13.20;99.90;;;-144.05;42.43;56944.41;5384066;26;20011;-82
2024/04/22 08:00:08;;;;;;;5.82;3.33;;;7.50;99.90;;;-144.05;42.95;56927.41;5380498;26;19997;-81
2024/04/22 08:02:36;;;;;;;5.07;3.10;;;8.10;99.90;;;-144.05;43.83;56931.66;5378194;26;20008;-82
2024/04/22 08:05:03;;;;;;;4.93;3.63;;;8.20;99.90;;;-144.05;42.49;56950.78;5379543;26;20011;-83
2024/04/22 08:07:33;;;;;;;5.30;3.80;;;7.60;99.90;;;-144.05;42.55;56952.91;5386918;26;20020;-83
2024/04/22 08:10:01;;;;;;;6.70;3.47;;;7.20;99.90;;;-144.05;43.74;56933.78;5386596;26;20069;-83
2024/04/22 08:12:27;;;;;;;5.50;3.38;;;10.70;99.90;;;-144.05;43.59;56978.41;5370644;26;20000;-82
2024/04/22 08:14:54;;;;;;;7.18;3.80;;;;;;;-144.05;44.56;56927.41;5386344;26;20000;-84
2024/04/22 08:17:19;;;;;;;4.88;3.13;;;7.00;99.90;;;-144.05;45.33;56972.03;5377536;26;20020;-81
2024/04/22 08:19:46;;;;;;;5.05;3.45;;;;;;;-144.05;44.06;56944.41;5371256;26;20447;-82
2024/04/22 08:22:16;;;;;;;5.10;3.42;;;9.10;99.90;;;-144.05;42.96;56948.66;5384128;26;20522;-82
2024/04/22 08:24:42;;;;;;;5.45;3.25;;;10.90;99.90;;;-144.05;41.88;56959.28;5371408;26;20012;-82
2024/04/22 08:27:08;;;;;;;5.03;3.67;;;14.10;99.90;;;-144.05;40.71;56933.78;5411778;26;20011;-82
2024/04/22 08:29:34;;;;;;;7.97;3.58;;;;;;;-144.05;39.65;56923.19;5376641;26;20104;-82
2024/04/22 08:32:00;;;;;;;6.00;3.75;;;;;;;-144.05;37.96;56927.41;5380096;26;20005;-84
2024/04/22 08:34:26;;;;;;;6.22;4.00;;;;;;;-144.05;38.63;56929.53;5382430;26;20015;-83
2024/04/22 08:36:54;;;;;;;8.05;3.78;;;9.10;99.90;;;-144.05;37.84;56895.56;5384213;26;20004;-83
2024/04/22 08:39:19;;;;;;;4.15;3.30;;;13.50;99.90;;;-144.05;36.91;56916.81;5397682;26;20008;-84
2024/04/22 08:41:45;;;;;;;5.57;3.25;;;12.30;99.90;;;-144.05;33.49;56942.28;5389367;26;20500;-81
2024/04/22 08:44:12;;;;;;;5.45;2.92;;;;;;;-144.05;34.29;56916.81;5385504;26;20074;-83
2024/04/22 08:46:37;;;;;;;3.08;2.35;;;9.60;97.80;;;-144.05;33.16;56925.28;5376961;26;20011;-83
2024/04/22 08:49:03;;;;;;;3.67;2.20;;;13.90;99.00;;;-144.05;33.05;56908.31;5414307;26;20008;-80
2024/04/22 08:51:31;;;;;;;3.60;2.83;;;14.60;95.10;;;-144.05;31.50;56946.53;5384644;26;20042;-85
2024/04/22 08:53:58;;;;;;;3.92;2.38;;;13.20;94.30;;;-144.05;31.79;56931.66;5385523;26;20008;-83
2024/04/22 08:56:28;;;;;;;3.63;2.40;;;10.60;92.30;;;-144.05;30.94;56944.41;5385028;26;20009;-82
2024/04/22 08:58:54;;;;;;;6.18;2.67;;;9.90;92.30;;;-144.05;32.16;56944.41;5385136;26;19996;-83
2024/04/22 09:01:27;;;;;;;3.30;2.15;;;10.70;93.00;;;-144.05;31.99;56963.53;5406935;26;20047;-82
2024/04/22 09:03:53;;;;;;;4.47;2.17;;;9.90;92.60;;;-144.05;32.24;56927.41;5376407;26;20005;-81
2024/04/22 09:06:18;;;;;;;4.00;2.20;;;14.50;95.00;;;-144.05;32.66;56929.53;5376653;26;20465;-81
2024/04/22 09:08:47;;;;;;;4.63;2.33;;;8.70;93.90;;;-144.05;33.32;56923.19;5371484;26;20036;-82
2024/04/22 09:11:19;;;;;;;2.85;1.83;;;14.20;95.70;;;-144.05;33.20;56948.66;5377385;26;20415;-81
2024/04/22 09:13:46;;;;;;;2.70;1.95;;;7.60;91.40;;;-144.05;32.33;56944.41;5376277;26;20015;-79
2024/04/22 09:16:16;;;;;;;2.67;1.80;;;11.30;91.90;;;-144.05;32.49;56950.78;5384877;26;20078;-82
2024/04/22 09:18:42;;;;;;;4.40;1.95;;;8.80;92.40;;;-144.05;32.92;56950.78;5383731;26;20016;-82
2024/04/22 09:21:09;;;;;;;3.25;1.90;;;;;;;-144.05;34.15;56950.78;5386233;26;20004;-81
2024/04/22 09:23:41;;;;;;;5.78;2.28;;;;;;;-144.05;32.98;56938.03;5385125;26;20106;-81
2024/04/22 09:26:07;;;;;;;2.63;1.70;;;;;;;-144.05;33.54;56948.66;5370594;26;20019;-83
2024/04/22 09:28:38;;;;;;;3.40;1.90;;;8.20;93.60;;;-144.05;34.15;56950.78;5368981;26;20311;-82
2024/04/22 09:31:05;;;;;;;2.95;2.05;;;10.30;94.00;;;-144.05;34.39;56938.03;5384788;26;20001;-81
2024/04/22 09:33:36;;;;;;;7.57;2.92;;;7.70;94.70;;;-144.05;34.94;56944.41;5405706;26;20000;-81
2024/04/22 09:36:09;;;;;;;13.98;3.67;;;8.10;94.60;;;-144.05;34.49;56944.41;5411774;26;20054;-81
2024/04/22 09:38:37;;;;;;;3.90;2.03;;;8.00;95.50;;;-144.05;35.09;56938.03;5385677;26;20326;-81
2024/04/22 09:41:04;;;;;;;2.67;1.83;;;7.60;95.10;;;-144.05;34.83;56965.66;5410785;26;20827;-83
2024/04/22 09:43:37;;;;;;;4.18;2.05;;;7.70;94.40;;;-144.05;34.64;56969.91;5379466;26;20004;-84
2024/04/22 09:46:04;;;;;;;1.88;1.60;;;14.00;97.20;;;-144.05;34.80;56961.41;5384549;26;20004;-81
2024/04/22 09:48:31;;;;;;;4.30;1.88;;;13.60;97.80;;;-144.05;35.67;56967.78;5377835;26;20082;-82
2024/04/22 09:51:00;;;;;;;3.10;2.15;;;7.30;97.10;;;-144.05;36.82;56935.91;5369484;26;20009;-83
2024/04/22 09:53:27;;;;;;;5.05;2.80;;;9.20;97.60;;;-144.05;37.01;56976.28;5379403;26;20108;-81
2024/04/22 09:56:06;;;;;;;4.50;2.20;;;9.00;98.00;;;-144.05;37.88;56942.28;5381129;26;20383;-82
2024/04/22 09:58:37;;;;;;;6.18;2.38;;;8.70;99.70;;;-144.05;39.00;56963.53;5384080;26;20016;-82
2024/04/22 10:01:04;;;;;;;2.28;1.98;;;7.70;99.90;;;-144.05;39.50;56961.41;5382711;26;20031;-82
2024/04/22 10:03:30;;;;;;;4.35;2.70;;;7.20;99.90;;;-144.05;41.15;56972.03;5411283;26;20426;-81
2024/04/22 10:06:01;;;;;;;4.35;2.85;;;7.10;99.90;;;-144.05;42.79;56995.38;5379237;26;20012;-81
2024/04/22 10:08:28;;;;;;;14.60;6.97;;;7.40;99.90;;;-144.05;46.69;56972.03;5381668;26;20446;-83
2024/04/22 10:11:11;;;;;;;6.40;2.88;;;7.30;99.90;;;-144.05;46.81;56976.28;5384471;26;20016;-81
2024/04/22 10:13:37;;;;;;;7.03;2.85;;;7.20;99.90;;;-144.05;47.70;56972.03;5382634;26;20442;-82
2024/04/22 10:16:04;;;;;;;5.22;3.47;;;7.10;99.90;;;-144.05;49.30;56969.91;5382474;26;20078;-84
2024/04/22 10:18:31;;;;;;;5.95;3.00;;;6.90;99.90;;;-144.05;50.69;56967.78;5381430;26;20011;-80
2024/04/22 10:21:03;;;;;;;5.93;3.40;;;7.00;99.90;;;-144.05;53.26;56972.03;5381469;26;19996;-83
2024/04/22 10:23:29;;;;;;;4.47;2.85;;;6.90;99.90;;;-144.05;53.03;56969.91;5376939;26;20008;-81
2024/04/22 10:25:55;;;;;;;3.53;2.60;;;;;;;-144.05;51.80;56965.66;5382808;26;20111;-82
2024/04/22 10:28:21;;;;;;;7.25;3.03;;;6.70;99.90;;;-144.05;52.37;56978.41;5368329;26;20005;-83